createdAt,value
2023-02-19T00:00:00.110Z, 92.6
2023-02-19T00:02:00.111Z, 92.5
2023-02-19T00:04:00.072Z, 92.1
2023-02-19T00:06:00.127Z, 91.5
2023-02-19T00:08:00.065Z, 91.6
2023-02-19T00:10:00.153Z, 91.2
2023-02-19T00:12:00.086Z, 91.1
2023-02-19T00:14:00.427Z, 91.4
2023-02-19T00:16:00.167Z, 91.6
2023-02-19T00:18:00.099Z, 90.8
2023-02-19T00:20:00.101Z, 91.4
2023-02-19T00:22:00.126Z, 93.2
2023-02-19T00:24:00.128Z, 94.2
2023-02-19T00:26:12.258Z, 94.8
2023-02-19T00:28:00.119Z, 95.4
2023-02-19T00:30:00.190Z, 95.7
2023-02-19T00:32:00.250Z, 95.2
2023-02-19T00:34:00.192Z, 94.6
2023-02-19T00:36:00.119Z, 94.6
2023-02-19T00:38:00.087Z, 94.9
2023-02-19T00:40:00.118Z, 94.3
2023-02-19T00:42:00.113Z, 94
2023-02-19T00:44:00.113Z, 93.8
2023-02-19T00:46:00.221Z, 94
2023-02-19T00:48:00.112Z, 94.3
2023-02-19T00:50:00.112Z, 93.8
2023-02-19T00:52:00.091Z, 93.2
2023-02-19T00:54:00.114Z, 93.1
2023-02-19T00:56:00.092Z, 93
2023-02-19T00:58:00.126Z, 93.5
2023-02-19T01:00:00.161Z, 94.5
2023-02-19T01:02:00.293Z, 95.6
2023-02-19T01:04:00.080Z, 95.9
2023-02-19T01:06:00.098Z, 96.2
2023-02-19T01:08:00.096Z, 97.3
2023-02-19T01:10:00.191Z, 98.5
2023-02-19T01:12:00.170Z, 99
2023-02-19T01:14:00.115Z, 99.3
2023-02-19T01:16:00.237Z, 99.3
2023-02-19T01:18:00.067Z, 99
2023-02-19T01:20:00.100Z, 99.2
2023-02-19T01:22:00.109Z, 99.4
2023-02-19T01:24:00.111Z, 99.3
2023-02-19T01:26:00.112Z, 98.5
2023-02-19T01:28:00.097Z, 98.1
2023-02-19T01:30:00.273Z, 97.6
2023-02-19T01:32:00.385Z, 97.3
2023-02-19T01:34:00.085Z, 97.2
2023-02-19T01:36:00.127Z, 97.4
2023-02-19T01:38:00.121Z, 96.9
2023-02-19T01:40:00.193Z, 96.6
2023-02-19T01:42:00.137Z, 96.6
2023-02-19T01:44:00.084Z, 96.9
2023-02-19T01:46:00.129Z, 97.2
2023-02-19T01:48:00.109Z, 97.5
2023-02-19T01:50:00.160Z, 97.5
2023-02-19T01:52:00.176Z, 97.5
2023-02-19T01:54:00.122Z, 97.5
2023-02-19T01:56:00.125Z, 98.4
2023-02-19T01:58:00.179Z, 99.3
2023-02-19T02:00:00.206Z, 100
2023-02-19T02:15:22.756Z, 100
2023-02-19T02:15:22.960Z, 100
2023-02-19T02:15:23.481Z, 100
2023-02-19T02:15:23.614Z, 100
2023-02-19T02:15:23.800Z, 100
2023-02-19T02:15:24.198Z, 100
2023-02-19T02:16:00.116Z, 100
2023-02-19T02:18:00.101Z, 100
2023-02-19T02:20:00.113Z, 100
2023-02-19T02:22:00.107Z, 100
2023-02-19T02:24:00.104Z, 100
2023-02-19T02:26:00.084Z, 100
2023-02-19T02:28:00.114Z, 100
2023-02-19T02:30:00.186Z, 99.6
2023-02-19T02:32:00.243Z, 99.4
2023-02-19T02:34:00.120Z, 98.9
2023-02-19T02:36:00.113Z, 98.9
2023-02-19T02:38:00.101Z, 98.7
2023-02-19T02:40:00.109Z, 98.7
2023-02-19T02:42:00.109Z, 98.4
2023-02-19T02:44:00.099Z, 97.9
2023-02-19T02:46:00.225Z, 97.9
2023-02-19T02:48:00.145Z, 97.5
2023-02-19T02:50:00.115Z, 97.6
2023-02-19T02:52:00.114Z, 97.4
2023-02-19T02:54:00.107Z, 97.1
2023-02-19T02:56:00.097Z, 97.3
2023-02-19T02:58:00.095Z, 97.4
2023-02-19T03:00:00.108Z, 97.4
2023-02-19T03:02:00.577Z, 97
2023-02-19T03:04:00.090Z, 96.6
2023-02-19T03:06:00.113Z, 96.4
2023-02-19T03:08:00.125Z, 96.4
2023-02-19T03:10:00.119Z, 96.3
2023-02-19T03:12:00.093Z, 96.7
2023-02-19T03:14:00.104Z, 96.7
2023-02-19T03:16:00.103Z, 97
2023-02-19T03:18:00.102Z, 96.7
2023-02-19T03:20:00.126Z, 96.6
2023-02-19T03:22:00.104Z, 96.6
2023-02-19T03:24:00.096Z, 96.6
2023-02-19T03:26:00.109Z, 96.4
2023-02-19T03:28:00.109Z, 96.5
2023-02-19T03:30:00.198Z, 96.7
2023-02-19T03:32:00.239Z, 97.2
2023-02-19T03:34:00.077Z, 97.8
2023-02-19T03:36:00.104Z, 98.4
2023-02-19T03:38:00.089Z, 99
2023-02-19T03:40:00.149Z, 99
2023-02-19T03:42:00.103Z, 99.7
2023-02-19T03:44:00.419Z, 100
2023-02-19T03:46:00.221Z, 100
2023-02-19T03:48:00.113Z, 100
2023-02-19T03:50:00.100Z, 100
2023-02-19T03:52:00.096Z, 100
2023-02-19T03:54:00.088Z, 100
2023-02-19T03:56:00.100Z, 100
2023-02-19T03:58:00.098Z, 100
2023-02-19T04:00:00.101Z, 100
2023-02-19T04:02:00.120Z, 100
2023-02-19T04:04:00.093Z, 100
2023-02-19T04:06:00.089Z, 100
2023-02-19T04:08:00.102Z, 100
2023-02-19T04:10:00.136Z, 100
2023-02-19T04:12:00.120Z, 100
2023-02-19T04:14:00.136Z, 100
2023-02-19T04:16:00.118Z, 100
2023-02-19T04:18:00.102Z, 100
2023-02-19T04:20:00.108Z, 100
2023-02-19T04:22:00.123Z, 100
2023-02-19T04:24:00.118Z, 100
2023-02-19T04:26:00.109Z, 100
2023-02-19T04:28:00.133Z, 100
2023-02-19T04:30:00.237Z, 100
2023-02-19T04:32:00.168Z, 100
2023-02-19T04:34:00.101Z, 100
2023-02-19T04:36:00.108Z, 100
2023-02-19T04:38:00.118Z, 100
2023-02-19T04:40:00.173Z, 100
2023-02-19T04:42:00.082Z, 100
2023-02-19T04:44:00.128Z, 100
2023-02-19T04:46:00.164Z, 100
2023-02-19T04:48:00.090Z, 100
2023-02-19T04:50:00.134Z, 100
2023-02-19T04:52:00.115Z, 100
2023-02-19T04:54:00.101Z, 100
2023-02-19T04:56:00.096Z, 100
2023-02-19T04:58:00.111Z, 99.6
2023-02-19T05:00:00.128Z, 99.6
2023-02-19T05:02:00.126Z, 99.4
2023-02-19T05:04:00.119Z, 99.6
2023-02-19T05:06:00.119Z, 99.8
2023-02-19T05:08:00.131Z, 100
2023-02-19T05:10:00.126Z, 100
2023-02-19T05:12:00.138Z, 100
2023-02-19T05:14:00.109Z, 100
2023-02-19T05:16:00.161Z, 99.9
2023-02-19T05:18:00.084Z, 99.8
2023-02-19T05:20:00.140Z, 99.3
2023-02-19T05:22:00.108Z, 99
2023-02-19T05:24:00.097Z, 98.5
2023-02-19T05:26:00.238Z, 98.7
2023-02-19T05:28:00.122Z, 98.8
2023-02-19T05:30:00.172Z, 98.8
2023-02-19T05:32:00.157Z, 98.3
2023-02-19T05:34:00.087Z, 97.8
2023-02-19T05:36:00.083Z, 97.4
2023-02-19T05:38:00.093Z, 97.2
2023-02-19T05:40:00.098Z, 97.3
2023-02-19T05:42:00.104Z, 97
2023-02-19T05:44:00.133Z, 97.2
2023-02-19T05:46:00.079Z, 97.3
2023-02-19T05:48:00.102Z, 97.4
2023-02-19T05:50:00.097Z, 97.3
2023-02-19T05:52:00.086Z, 96.8
2023-02-19T05:54:00.118Z, 97.3
2023-02-19T05:56:00.103Z, 97.9
2023-02-19T05:58:00.103Z, 98.1
2023-02-19T06:00:00.101Z, 98
2023-02-19T06:02:00.116Z, 97.8
2023-02-19T06:04:00.173Z, 96.4
2023-02-19T06:06:00.135Z, 96.7
2023-02-19T06:08:00.116Z, 97.2
2023-02-19T06:10:00.111Z, 97.5
2023-02-19T06:12:00.094Z, 97.4
2023-02-19T06:14:00.093Z, 97.4
2023-02-19T06:16:00.158Z, 97.3
2023-02-19T06:18:00.093Z, 97.5
2023-02-19T06:20:00.098Z, 97.5
2023-02-19T06:22:00.102Z, 97.1
2023-02-19T06:24:00.100Z, 97.4
2023-02-19T06:26:00.169Z, 97.5
2023-02-19T06:28:00.394Z, 97.4
2023-02-19T06:30:00.131Z, 97.1
2023-02-19T06:32:00.323Z, 96.7
2023-02-19T06:34:00.341Z, 96.7
2023-02-19T06:36:00.106Z, 96.8
2023-02-19T06:38:00.097Z, 97.4
2023-02-19T06:40:00.133Z, 97.8
2023-02-19T06:42:00.094Z, 97.9
2023-02-19T06:44:00.090Z, 98
2023-02-19T06:46:00.106Z, 98.3
2023-02-19T06:48:00.100Z, 97.8
2023-02-19T06:50:00.134Z, 97.8
2023-02-19T06:52:00.096Z, 97.8
2023-02-19T06:54:00.118Z, 98.1
2023-02-19T06:56:00.114Z, 97.9
2023-02-19T06:58:00.122Z, 97.9
2023-02-19T07:00:00.129Z, 97.7
2023-02-19T07:02:00.093Z, 97.4
2023-02-19T07:04:00.247Z, 97.5
2023-02-19T07:06:00.118Z, 97.5
2023-02-19T07:08:00.091Z, 97.2
2023-02-19T07:10:00.122Z, 97.2
2023-02-19T07:12:00.099Z, 97.1
2023-02-19T07:14:00.136Z, 97.2
2023-02-19T07:16:00.298Z, 97.8
2023-02-19T07:18:00.148Z, 98.4
2023-02-19T07:20:00.144Z, 98.7
2023-02-19T07:22:00.089Z, 99.1
2023-02-19T07:24:00.104Z, 99.2
2023-02-19T07:26:00.115Z, 99.1
2023-02-19T07:28:00.104Z, 99
2023-02-19T07:30:00.207Z, 98.3
2023-02-19T07:32:00.117Z, 97.5
2023-02-19T07:34:00.099Z, 97.1
2023-02-19T07:36:00.132Z, 96.7
2023-02-19T07:38:00.072Z, 96.4
2023-02-19T07:40:00.098Z, 96.7
2023-02-19T07:42:00.118Z, 96.4
2023-02-19T07:44:00.079Z, 95.7
2023-02-19T07:46:00.165Z, 95.5
2023-02-19T07:48:00.102Z, 95.7
2023-02-19T07:50:00.127Z, 95.1
2023-02-19T07:52:00.121Z, 94.9
2023-02-19T07:54:00.126Z, 94.6
2023-02-19T07:56:00.111Z, 94.7
2023-02-19T07:58:00.121Z, 95
2023-02-19T08:00:00.141Z, 95
2023-02-19T08:02:00.076Z, 93.7
2023-02-19T08:04:00.076Z, 93.5
2023-02-19T08:06:00.074Z, 92.7
2023-02-19T08:08:00.112Z, 92.1
2023-02-19T08:10:00.143Z, 91.9
2023-02-19T08:12:00.086Z, 92.2
2023-02-19T08:14:00.108Z, 91.2
2023-02-19T08:16:16.068Z, 91
2023-02-19T08:18:00.224Z, 90.8
2023-02-19T08:20:00.096Z, 90.7
2023-02-19T08:22:00.384Z, 90.2
2023-02-19T08:24:00.190Z, 90.2
2023-02-19T08:26:00.397Z, 90
2023-02-19T08:28:00.109Z, 90
2023-02-19T08:30:00.158Z, 90.5
2023-02-19T08:32:00.165Z, 90.8
2023-02-19T08:34:00.120Z, 91
2023-02-19T08:36:00.099Z, 90.9
2023-02-19T08:38:00.099Z, 90.9
2023-02-19T08:40:00.099Z, 90.5
2023-02-19T08:42:00.111Z, 90.9
2023-02-19T08:44:00.102Z, 90.3
2023-02-19T08:46:00.145Z, 90.6
2023-02-19T08:48:00.117Z, 91.3
2023-02-19T08:50:00.112Z, 92.3
2023-02-19T08:52:00.082Z, 92.4
2023-02-19T08:54:00.101Z, 92.8
2023-02-19T08:56:00.094Z, 92.3
2023-02-19T08:58:00.102Z, 92.3
2023-02-19T09:00:00.100Z, 92.2
2023-02-19T09:02:00.101Z, 91.3
2023-02-19T09:04:00.096Z, 92.2
2023-02-19T09:06:00.107Z, 92.2
2023-02-19T09:08:00.099Z, 92.8
2023-02-19T09:10:00.092Z, 93.8
2023-02-19T09:12:00.406Z, 94.7
2023-02-19T09:14:00.078Z, 94.9
2023-02-19T09:16:00.112Z, 95.3
2023-02-19T09:18:00.220Z, 96.2
2023-02-19T09:20:00.113Z, 97.3
2023-02-19T09:22:00.098Z, 98.4
2023-02-19T09:24:00.092Z, 99.3
2023-02-19T09:26:00.208Z, 99.8
2023-02-19T09:28:00.108Z, 100
2023-02-19T09:30:00.178Z, 99.6
2023-02-19T09:32:00.211Z, 100
2023-02-19T09:34:00.089Z, 99.3
2023-02-19T09:36:00.131Z, 99
2023-02-19T09:38:00.102Z, 99.2
2023-02-19T09:40:00.074Z, 99.5
2023-02-19T09:42:00.112Z, 100
2023-02-19T09:44:00.126Z, 99.1
2023-02-19T09:46:00.187Z, 98.7
2023-02-19T09:48:00.115Z, 98.5
2023-02-19T09:50:00.110Z, 97.7
2023-02-19T09:52:00.099Z, 96.8
2023-02-19T09:54:00.099Z, 95.9
2023-02-19T09:56:00.111Z, 95
2023-02-19T09:58:00.120Z, 94.6
2023-02-19T10:00:00.092Z, 94.2
2023-02-19T10:02:00.094Z, 94.2
2023-02-19T10:04:00.088Z, 94
2023-02-19T10:06:00.092Z, 94
2023-02-19T10:08:00.114Z, 94.1
2023-02-19T10:10:00.111Z, 93.7
2023-02-19T10:12:00.127Z, 93.5
2023-02-19T10:14:00.098Z, 93.4
2023-02-19T10:16:00.155Z, 94
2023-02-19T10:18:00.154Z, 94.1
2023-02-19T10:20:00.143Z, 94.7
2023-02-19T10:22:00.172Z, 94.4
2023-02-19T10:24:00.106Z, 94.1
2023-02-19T10:26:00.138Z, 94.2
2023-02-19T10:28:00.144Z, 94.5
2023-02-19T10:30:00.320Z, 93.4
2023-02-19T10:32:00.266Z, 93.2
2023-02-19T10:34:00.110Z, 92.7
2023-02-19T10:36:00.100Z, 92.6
2023-02-19T10:38:00.098Z, 91.7
2023-02-19T10:40:00.153Z, 91.3
2023-02-19T10:42:00.119Z, 91.5
2023-02-19T10:44:00.099Z, 92
2023-02-19T10:46:00.082Z, 91.5
2023-02-19T10:48:00.109Z, 91.8
2023-02-19T10:50:01.549Z, 90.5
2023-02-19T10:52:00.115Z, 90.3
2023-02-19T10:54:00.073Z, 89.5
2023-02-19T10:56:00.087Z, 89.5
2023-02-19T10:58:00.074Z, 89
2023-02-19T11:00:00.139Z, 89
2023-02-19T11:02:00.578Z, 87.5
2023-02-19T11:04:00.079Z, 87.1
2023-02-19T11:06:00.077Z, 86.5
2023-02-19T11:08:00.105Z, 84.8
2023-02-19T11:10:00.135Z, 85.1
2023-02-19T11:12:00.105Z, 85.2
2023-02-19T11:14:00.100Z, 85.2
2023-02-19T11:16:00.170Z, 85.3
2023-02-19T11:18:00.109Z, 84.7
2023-02-19T11:20:00.103Z, 85.4
2023-02-19T11:22:00.097Z, 85.5
2023-02-19T11:24:00.833Z, 85.7
2023-02-19T11:26:00.100Z, 86
2023-02-19T11:28:00.093Z, 85.5
2023-02-19T11:30:00.229Z, 84.8
2023-02-19T11:32:00.246Z, 85.4
2023-02-19T11:34:00.127Z, 85.3
2023-02-19T11:36:00.068Z, 86.1
2023-02-19T11:38:00.093Z, 87.3
2023-02-19T11:40:00.094Z, 87.7
2023-02-19T11:42:00.099Z, 88.7
2023-02-19T11:44:00.076Z, 89.2
2023-02-19T11:46:00.100Z, 88.9
2023-02-19T11:48:00.284Z, 87.9
2023-02-19T11:50:00.104Z, 88.4
2023-02-19T11:52:00.113Z, 88.9
2023-02-19T11:54:00.109Z, 88.8
2023-02-19T11:56:00.139Z, 87.9
2023-02-19T11:58:00.113Z, 88.4
2023-02-19T12:00:00.075Z, 88.3
2023-02-19T12:02:00.175Z, 88.1
2023-02-19T12:04:00.663Z, 87.1
2023-02-19T12:06:00.106Z, 87.9
2023-02-19T12:08:00.100Z, 87.8
2023-02-19T12:10:00.095Z, 87.9
2023-02-19T12:12:00.079Z, 88.4
2023-02-19T12:14:00.097Z, 87.8
2023-02-19T12:16:00.166Z, 88.6
2023-02-19T12:18:00.079Z, 88.8
2023-02-19T12:20:00.070Z, 88.4
2023-02-19T12:22:00.110Z, 88.1
2023-02-19T12:24:00.119Z, 87.7
2023-02-19T12:26:00.115Z, 88.3
2023-02-19T12:28:00.106Z, 88.7
2023-02-19T12:30:00.195Z, 87.1
2023-02-19T12:32:00.134Z, 88
2023-02-19T12:34:00.090Z, 88.9
2023-02-19T12:36:00.109Z, 88.9
2023-02-19T12:38:00.090Z, 89
2023-02-19T12:40:00.098Z, 87.6
2023-02-19T12:44:00.450Z, 87.6
2023-02-19T12:46:00.318Z, 88.4
2023-02-19T12:48:00.197Z, 88.2
2023-02-19T12:50:00.120Z, 88.1
2023-02-19T12:52:00.115Z, 86.6
2023-02-19T12:54:00.081Z, 86.1
2023-02-19T12:56:00.100Z, 86.5
2023-02-19T12:58:00.103Z, 86.4
2023-02-19T13:00:00.119Z, 86.2
2023-02-19T13:02:00.138Z, 87
2023-02-19T13:04:00.104Z, 87.5
2023-02-19T13:06:00.097Z, 87.8
2023-02-19T13:08:00.077Z, 87.4
2023-02-19T13:10:00.122Z, 86.9
2023-02-19T13:12:00.112Z, 86.6
2023-02-19T13:14:00.107Z, 86.3
2023-02-19T13:16:00.138Z, 84.7
2023-02-19T13:18:01.538Z, 84.8
2023-02-19T13:20:00.144Z, 85.4
2023-02-19T13:22:00.100Z, 86.2
2023-02-19T13:24:00.116Z, 85.5
2023-02-19T13:26:00.137Z, 85.8
2023-02-19T13:28:00.148Z, 85.6
2023-02-19T13:30:00.229Z, 85.9
2023-02-19T13:32:00.255Z, 86.4
2023-02-19T13:34:00.104Z, 86.6
2023-02-19T13:36:00.100Z, 87.3
2023-02-19T13:38:00.093Z, 89.1
2023-02-19T13:40:00.131Z, 89.7
2023-02-19T13:42:00.097Z, 90.7
2023-02-19T13:44:00.106Z, 91.2
2023-02-19T13:46:00.174Z, 90.1
2023-02-19T13:48:00.109Z, 89.6
2023-02-19T13:50:00.122Z, 89.8
2023-02-19T13:52:00.118Z, 89.7
2023-02-19T13:54:00.120Z, 89.1
2023-02-19T13:56:00.089Z, 88.7
2023-02-19T13:58:00.106Z, 88.1
2023-02-19T14:00:00.180Z, 87.5
2023-02-19T14:02:00.104Z, 87.3
2023-02-19T14:04:00.105Z, 87.5
2023-02-19T14:06:00.080Z, 87.5
2023-02-19T14:08:00.101Z, 87.7
2023-02-19T14:10:00.108Z, 87.7
2023-02-19T14:12:00.077Z, 87.3
2023-02-19T14:14:00.091Z, 87
2023-02-19T14:16:00.139Z, 86.6
2023-02-19T14:18:00.073Z, 86.3
2023-02-19T14:20:01.825Z, 86.4
2023-02-19T14:22:00.110Z, 86.4
2023-02-19T14:24:00.107Z, 86.4
2023-02-19T14:26:00.185Z, 85
2023-02-19T14:28:00.114Z, 85
2023-02-19T14:30:00.183Z, 85
2023-02-19T14:32:00.203Z, 85
2023-02-19T14:34:00.111Z, 85
2023-02-19T14:36:00.131Z, 85
2023-02-19T14:38:00.108Z, 89.7
2023-02-19T14:40:00.121Z, 91
2023-02-19T14:42:00.107Z, 92
2023-02-19T14:44:00.075Z, 91.8
2023-02-19T14:46:00.160Z, 91.4
2023-02-19T14:48:00.082Z, 91.3
2023-02-19T14:50:00.063Z, 92.3
2023-02-19T14:52:00.106Z, 92.7
2023-02-19T14:54:00.103Z, 92
2023-02-19T14:56:00.102Z, 92.1
2023-02-19T14:58:00.088Z, 91.2
2023-02-19T15:00:00.123Z, 89.8
2023-02-19T15:02:00.119Z, 89.4
2023-02-19T15:04:00.087Z, 89.8
2023-02-19T15:06:00.080Z, 89.6
2023-02-19T15:08:00.086Z, 89.2
2023-02-19T15:10:01.195Z, 88
2023-02-19T15:12:00.067Z, 87.6
2023-02-19T15:14:00.107Z, 86.1
2023-02-19T15:16:00.189Z, 85.9
2023-02-19T15:18:00.424Z, 85.8
2023-02-19T15:20:00.129Z, 85.9
2023-02-19T15:22:00.248Z, 86
2023-02-19T15:24:00.104Z, 86.6
2023-02-19T15:26:00.116Z, 87.1
2023-02-19T15:28:00.103Z, 87.2
2023-02-19T15:30:00.227Z, 87.2
2023-02-19T15:32:00.253Z, 86.7
2023-02-19T15:34:00.097Z, 87.1
2023-02-19T15:36:00.126Z, 86.6
2023-02-19T15:38:00.107Z, 86.7
2023-02-19T15:40:00.134Z, 87
2023-02-19T15:42:00.535Z, 87.1
2023-02-19T15:44:00.098Z, 87.1
2023-02-19T15:46:00.054Z, 86.8
2023-02-19T15:48:00.074Z, 86.7
2023-02-19T15:50:00.111Z, 86.7
2023-02-19T15:52:00.078Z, 86.6
2023-02-19T15:54:00.049Z, 86.5
2023-02-19T15:56:00.045Z, 86.3
2023-02-19T15:58:00.058Z, 86.5
2023-02-19T16:00:00.097Z, 86.7
2023-02-19T16:02:00.119Z, 87
2023-02-19T16:04:00.100Z, 86.8
2023-02-19T16:06:00.046Z, 86.7
2023-02-19T16:08:00.043Z, 86.6
2023-02-19T16:10:00.055Z, 86.9
2023-02-19T16:12:00.077Z, 87
2023-02-19T16:14:00.101Z, 87.2
2023-02-19T16:16:00.253Z, 87.3
2023-02-19T16:18:00.123Z, 87.6
2023-02-19T16:20:00.252Z, 86.9
2023-02-19T16:22:00.117Z, 87.3
2023-02-19T16:24:00.100Z, 87.9
2023-02-19T16:26:00.119Z, 87.8
2023-02-19T16:28:00.122Z, 87.7
2023-02-19T16:30:00.243Z, 88.2
2023-02-19T16:32:00.277Z, 88.5
2023-02-19T16:34:00.130Z, 88.7
2023-02-19T16:36:00.117Z, 88.4
2023-02-19T16:38:00.099Z, 88.5
2023-02-19T16:40:00.138Z, 88.7
2023-02-19T16:42:00.125Z, 88.8
2023-02-19T16:44:00.087Z, 89.1
2023-02-19T16:46:00.223Z, 89.5
2023-02-19T16:48:00.056Z, 89.5
2023-02-19T16:50:00.181Z, 90.4
2023-02-19T16:52:00.056Z, 90.8
2023-02-19T16:54:00.077Z, 91.3
2023-02-19T16:56:00.084Z, 91.4
2023-02-19T16:58:00.037Z, 91.3
2023-02-19T17:00:00.050Z, 91.5
2023-02-19T17:02:00.103Z, 91.8
2023-02-19T17:04:00.141Z, 92
2023-02-19T17:06:00.192Z, 91.6
2023-02-19T17:08:00.096Z, 92
2023-02-19T17:10:00.073Z, 92.1
2023-02-19T17:12:00.282Z, 92.6
2023-02-19T17:14:00.131Z, 92.8
2023-02-19T17:16:00.145Z, 92.8
2023-02-19T17:18:00.102Z, 93
2023-02-19T17:20:00.112Z, 93.1
2023-02-19T17:22:00.103Z, 93.7
2023-02-19T17:24:00.124Z, 93.9
2023-02-19T17:26:00.103Z, 94
2023-02-19T17:28:00.126Z, 93.9
2023-02-19T17:30:00.191Z, 93.8
2023-02-19T17:32:00.248Z, 93.9
2023-02-19T17:34:00.109Z, 94.1
2023-02-19T17:36:00.094Z, 94
2023-02-19T17:38:00.102Z, 93.9
2023-02-19T17:40:00.150Z, 93.7
2023-02-19T17:42:00.103Z, 93.3
2023-02-19T17:44:00.100Z, 93.2
2023-02-19T17:46:00.186Z, 93.3
2023-02-19T17:48:00.069Z, 93.7
2023-02-19T17:50:00.044Z, 93.8
2023-02-19T17:52:00.089Z, 93.6
2023-02-19T17:54:00.171Z, 93.8
2023-02-19T17:56:00.041Z, 93.9
2023-02-19T17:58:00.233Z, 93.9
2023-02-19T18:00:00.261Z, 94.1
2023-02-19T18:02:00.068Z, 94.4
2023-02-19T18:04:00.101Z, 94.8
2023-02-19T18:06:00.106Z, 95.1
2023-02-19T18:08:00.049Z, 95.3
2023-02-19T18:10:00.054Z, 95.3
2023-02-19T18:12:00.030Z, 95.5
2023-02-19T18:14:00.103Z, 95.5
2023-02-19T18:16:00.132Z, 95.8
2023-02-19T18:18:00.109Z, 96.1
2023-02-19T18:20:00.139Z, 96.2
2023-02-19T18:22:00.101Z, 96.5
2023-02-19T18:24:00.125Z, 96.4
2023-02-19T18:26:00.112Z, 96.4
2023-02-19T18:28:00.102Z, 96.5
2023-02-19T18:30:00.281Z, 96.4
2023-02-19T18:32:00.287Z, 96.1
2023-02-19T18:34:00.122Z, 95.5
2023-02-19T18:36:00.143Z, 95.5
2023-02-19T18:38:00.107Z, 95.8
2023-02-19T18:40:00.142Z, 96.1
2023-02-19T18:42:00.115Z, 96.2
2023-02-19T18:44:00.094Z, 96.2
2023-02-19T18:46:00.109Z, 95.9
2023-02-19T18:48:00.108Z, 95.3
2023-02-19T18:50:00.085Z, 95.4
2023-02-19T18:52:00.108Z, 95.1
2023-02-19T18:54:00.049Z, 95.3
2023-02-19T18:56:00.056Z, 95.1
2023-02-19T18:58:00.054Z, 95.2
2023-02-19T19:00:00.110Z, 95.4
2023-02-19T19:02:00.035Z, 95.3
2023-02-19T19:04:00.087Z, 95.4
2023-02-19T19:06:00.054Z, 95.3
2023-02-19T19:08:00.037Z, 95.4
2023-02-19T19:10:00.043Z, 95.5
2023-02-19T19:12:00.017Z, 95.4
2023-02-19T19:14:00.126Z, 95.5
2023-02-19T19:16:00.188Z, 96
2023-02-19T19:18:00.131Z, 96.8
2023-02-19T19:20:00.152Z, 97.3
2023-02-19T19:22:00.128Z, 98
2023-02-19T19:24:00.145Z, 98.4
2023-02-19T19:26:00.130Z, 98.5
2023-02-19T19:28:00.126Z, 98.6
2023-02-19T19:30:00.263Z, 98.3
2023-02-19T19:32:00.215Z, 97.9
2023-02-19T19:34:00.121Z, 97
2023-02-19T19:36:00.119Z, 95.4
2023-02-19T19:38:00.131Z, 95
2023-02-19T19:40:00.158Z, 95.1
2023-02-19T19:42:00.121Z, 95.4
2023-02-19T19:44:00.122Z, 95.4
2023-02-19T19:46:00.196Z, 95.4
2023-02-19T19:48:00.072Z, 95.3
2023-02-19T19:50:00.061Z, 95.1
2023-02-19T19:52:00.052Z, 94.9
2023-02-19T19:54:00.102Z, 94.4
2023-02-19T19:56:00.046Z, 94.1
2023-02-19T19:58:00.031Z, 93.7
2023-02-19T20:00:00.126Z, 93.5
2023-02-19T20:02:00.135Z, 93.4
2023-02-19T20:04:00.061Z, 93.2
2023-02-19T20:06:00.051Z, 93.4
2023-02-19T20:08:00.095Z, 92.9
2023-02-19T20:10:00.110Z, 92.6
2023-02-19T20:12:00.073Z, 92.5
2023-02-19T20:14:00.109Z, 92.3
2023-02-19T20:16:00.157Z, 92.8
2023-02-19T20:18:00.111Z, 93.3
2023-02-19T20:20:00.101Z, 93.7
2023-02-19T20:22:00.105Z, 93.7
2023-02-19T20:24:00.109Z, 94.1
2023-02-19T20:26:00.164Z, 94.2
2023-02-19T20:28:00.108Z, 94.5
2023-02-19T20:30:00.131Z, 94.6
2023-02-19T20:32:00.437Z, 94.4
2023-02-19T20:34:00.298Z, 94.2
2023-02-19T20:36:00.122Z, 94.1
2023-02-19T20:38:00.124Z, 94
2023-02-19T20:40:00.110Z, 94
2023-02-19T20:42:00.111Z, 93.7
2023-02-19T20:44:00.290Z, 93.5
2023-02-19T20:46:00.127Z, 93.2
2023-02-19T20:48:00.096Z, 93.5
2023-02-19T20:50:00.162Z, 93.7
2023-02-19T20:52:00.090Z, 93.3
2023-02-19T20:54:00.219Z, 92.6
2023-02-19T20:56:00.053Z, 92.2
2023-02-19T20:58:00.053Z, 92.4
2023-02-19T21:00:00.192Z, 92.2
2023-02-19T21:02:00.120Z, 92.4
2023-02-19T21:04:00.053Z, 91.9
2023-02-19T21:06:00.044Z, 91.5
2023-02-19T21:08:00.052Z, 91.2
2023-02-19T21:10:00.041Z, 90.6
2023-02-19T21:12:00.049Z, 90.4
2023-02-19T21:14:00.115Z, 89.7
2023-02-19T21:16:00.191Z, 89.1
2023-02-19T21:18:00.102Z, 88.8
2023-02-19T21:20:00.165Z, 88.5
2023-02-19T21:22:00.130Z, 88.2
2023-02-19T21:24:00.128Z, 88.6
2023-02-19T21:26:00.130Z, 88.6
2023-02-19T21:28:00.146Z, 88.9
2023-02-19T21:30:00.126Z, 89.1
2023-02-19T21:32:00.269Z, 89.2
2023-02-19T21:34:00.121Z, 89.2
2023-02-19T21:36:00.104Z, 88.9
2023-02-19T21:38:00.110Z, 88.5
2023-02-19T21:40:00.143Z, 88.6
2023-02-19T21:42:00.102Z, 88
2023-02-19T21:44:00.111Z, 87.1
2023-02-19T21:46:00.194Z, 86.8
2023-02-19T21:48:00.100Z, 87.1
2023-02-19T21:50:00.056Z, 87.2
2023-02-19T21:52:00.092Z, 86.9
2023-02-19T21:54:00.078Z, 87
2023-02-19T21:56:00.099Z, 87
2023-02-19T21:58:00.046Z, 87.3
2023-02-19T22:00:00.046Z, 87
2023-02-19T22:02:00.058Z, 87.3
2023-02-19T22:04:00.116Z, 87.6
2023-02-19T22:06:00.040Z, 87.8
2023-02-19T22:08:00.135Z, 87.7
2023-02-19T22:10:00.045Z, 87.9
2023-02-19T22:12:00.034Z, 87.9
2023-02-19T22:14:00.092Z, 87.7
2023-02-19T22:16:00.176Z, 87.5
2023-02-19T22:18:00.116Z, 87.6
2023-02-19T22:20:00.159Z, 87.5
2023-02-19T22:22:00.102Z, 87.7
2023-02-19T22:24:00.159Z, 87.5
2023-02-19T22:26:00.107Z, 87.9
2023-02-19T22:28:00.282Z, 87.6
2023-02-19T22:30:00.117Z, 88
2023-02-19T22:32:00.213Z, 87.1
2023-02-19T22:34:00.089Z, 86.3
2023-02-19T22:36:00.117Z, 86.2
2023-02-19T22:38:00.103Z, 86.2
2023-02-19T22:40:00.143Z, 86.3
2023-02-19T22:42:00.096Z, 86.6
2023-02-19T22:44:00.073Z, 86.3
2023-02-19T22:46:00.179Z, 86.4
2023-02-19T22:48:00.089Z, 86.2
2023-02-19T22:50:00.080Z, 86.2
2023-02-19T22:52:00.088Z, 86.1
2023-02-19T22:54:00.062Z, 86.3
2023-02-19T22:56:00.052Z, 86.1
2023-02-19T22:58:00.055Z, 86.2
2023-02-19T23:00:00.062Z, 86.3
2023-02-19T23:02:00.094Z, 85.9
2023-02-19T23:04:00.136Z, 86
2023-02-19T23:06:00.047Z, 86
2023-02-19T23:08:00.056Z, 86.4
2023-02-19T23:10:00.051Z, 86.3
2023-02-19T23:12:00.049Z, 86.4
2023-02-19T23:14:00.124Z, 86.8
2023-02-19T23:16:00.103Z, 86.8
2023-02-19T23:18:00.109Z, 86.9
2023-02-19T23:20:00.327Z, 86.7
2023-02-19T23:22:00.146Z, 86.8
2023-02-19T23:24:00.113Z, 86.9
2023-02-19T23:26:00.107Z, 86.8
2023-02-19T23:28:00.159Z, 86.4
2023-02-19T23:30:00.124Z, 86.4
2023-02-19T23:32:00.278Z, 86.8
2023-02-19T23:34:00.102Z, 87
2023-02-19T23:36:00.108Z, 87.1
2023-02-19T23:38:00.128Z, 87.2
2023-02-19T23:40:00.131Z, 87.3
2023-02-19T23:42:00.101Z, 87.4
2023-02-19T23:44:00.106Z, 87.3
2023-02-19T23:46:00.057Z, 87.4
2023-02-19T23:48:00.085Z, 87.8
2023-02-19T23:50:00.067Z, 88.1
2023-02-19T23:52:00.059Z, 88.6
2023-02-19T23:54:00.053Z, 89
2023-02-19T23:56:00.101Z, 88.9
2023-02-19T23:58:00.054Z, 88.8
